Time;durP1;ratioP1;P1;durP2;ratioP2;P2;SDS_P1;SDS_P2;PMS_P1;PMS_P2;Temp;Humidity;BMP_temperature;BMP_pressure;BME280_temperature;BME280_humidity;BME280_pressure;Samples;Min_cycle;Max_cycle;Signal;HPM_P1;HPM_P2
2023/04/03 00:00:11;;;;;;;2.72;2.00;;;4.90;1.00;;;;;;5190935;28;20036;-69
2023/04/03 00:02:42;;;;;;;4.78;2.42;;;4.90;99.90;;;;;;5237244;28;20050;-67
2023/04/03 00:05:14;;;;;;;3.22;2.20;;;4.90;99.90;;;;;;5236000;28;20051;-67
2023/04/03 00:07:51;;;;;;;2.40;1.83;;;4.90;99.90;;;;;;5257360;28;20012;-68
2023/04/03 00:10:30;;;;;;;4.30;2.10;;;4.90;99.90;;;;;;5239527;28;20039;-67
2023/04/03 00:13:08;;;;;;;2.72;1.92;;;4.90;99.90;;;;;;5258976;28;20582;-69
2023/04/03 00:15:42;;;;;;;3.25;2.13;;;4.90;99.90;;;;;;5252961;28;20032;-70
2023/04/03 00:18:16;;;;;;;3.38;2.50;;;4.90;99.90;;;;;;5240624;28;20044;-69
2023/04/03 00:20:48;;;;;;;2.50;2.08;;;4.90;99.90;;;;;;5241581;28;20032;-67
2023/04/03 00:23:27;;;;;;;2.38;1.92;;;4.90;99.90;;;;;;5240629;28;20271;-67
2023/04/03 00:26:01;;;;;;;2.33;2.03;;;4.90;99.90;;;;;;5240143;28;20074;-69
2023/04/03 00:28:35;;;;;;;2.30;2.10;;;4.90;99.90;;;;;;5236672;28;20038;-69
2023/04/03 00:31:09;;;;;;;2.80;2.08;;;4.90;99.90;;;;;;5212124;28;20032;-70
2023/04/03 00:33:41;;;;;;;2.42;2.20;;;4.90;99.90;;;;;;5223965;28;20360;-70
2023/04/03 00:36:13;;;;;;;2.60;2.22;;;4.90;99.90;;;;;;5237229;28;20036;-66
2023/04/03 00:38:44;;;;;;;3.63;1.98;;;4.90;1.00;;;;;;5230204;28;20372;-66
2023/04/03 00:41:15;;;;;;;3.17;2.10;;;4.80;1.00;;;;;;5222687;28;20046;-68
2023/04/03 00:43:49;;;;;;;2.92;2.40;;;4.90;99.90;;;;;;5256634;28;20245;-66
2023/04/03 00:46:28;;;;;;;2.17;1.85;;;4.80;1.00;;;;;;5220276;28;20046;-68
2023/04/03 00:49:01;;;;;;;4.00;2.53;;;4.80;1.00;;;;;;5215865;28;20016;-68
2023/04/03 00:51:35;;;;;;;2.65;2.15;;;4.80;1.00;;;;;;5235592;28;20039;-70
2023/04/03 00:54:08;;;;;;;3.08;2.20;;;4.80;1.00;;;;;;5228101;28;20042;-69
2023/04/03 00:56:39;;;;;;;2.30;1.83;;;4.80;1.00;;;;;;5224576;28;20614;-70
2023/04/03 00:59:38;;;;;;;2.42;2.22;;;4.80;1.00;;;;;;5220505;28;20408;-70
2023/04/03 01:02:10;;;;;;;3.25;2.40;;;4.80;1.00;;;;;;5310229;22;20044;-67
2023/04/03 01:04:47;;;;;;;3.17;2.08;;;4.80;1.00;;;;;;5177734;28;20056;-68
2023/04/03 01:07:35;;;;;;;3.45;2.58;;;4.80;1.00;;;;;;5171394;28;20360;-70
2023/04/03 01:10:09;;;;;;;2.45;2.00;;;4.80;1.00;;;;;;5136229;28;20379;-70
2023/04/03 01:12:44;;;;;;;;;;;4.80;1.00;;;;;;5155465;28;20430;-69
2023/04/03 01:15:24;;;;;;;2.80;2.00;;;4.80;1.00;;;;;;5167352;28;19916;-70
2023/04/03 01:17:59;;;;;;;2.70;1.77;;;4.70;1.00;;;;;;5155231;28;20102;-69
2023/04/03 01:20:36;;;;;;;2.75;2.35;;;4.80;1.00;;;;;;5155602;28;20050;-70
2023/04/03 01:23:16;;;;;;;2.58;1.90;;;4.80;1.00;;;;;;5179561;28;20018;-70
2023/04/03 01:25:53;;;;;;;3.78;2.38;;;4.80;1.00;;;;;;5177260;28;20490;-68
2023/04/03 01:28:34;;;;;;;4.03;2.35;;;4.70;1.00;;;;;;5177946;28;20043;-68
2023/04/03 01:31:29;;;;;;;3.33;2.10;;;4.70;1.00;;;;;;5163456;28;20258;-69
2023/04/03 01:34:02;;;;;;;3.28;2.00;;;4.70;1.00;;;;;;5163195;28;20024;-71
2023/04/03 01:36:33;;;;;;;3.25;2.15;;;4.70;1.00;;;;;;5139935;28;20046;-67
2023/04/03 01:39:07;;;;;;;2.70;1.90;;;4.70;1.00;;;;;;5156263;28;20034;-68
2023/04/03 01:41:38;;;;;;;3.45;2.42;;;4.70;1.00;;;;;;5131687;28;20030;-66
2023/04/03 01:44:15;;;;;;;2.55;1.83;;;4.70;1.00;;;;;;5165598;28;20322;-67
2023/04/03 01:46:49;;;;;;;3.30;2.80;;;4.70;1.00;;;;;;5171698;28;20029;-71
2023/04/03 01:49:20;;;;;;;2.40;2.20;;;4.60;1.00;;;;;;5172339;28;20028;-68
2023/04/03 01:51:51;;;;;;;3.28;2.42;;;4.70;1.00;;;;;;5153039;28;20411;-68
2023/04/03 01:54:28;;;;;;;3.10;2.10;;;4.70;1.00;;;;;;5180671;28;20021;-71
2023/04/03 01:57:00;;;;;;;3.55;2.40;;;4.70;1.00;;;;;;5145623;28;20040;-68
2023/04/03 01:59:32;;;;;;;3.35;2.40;;;4.60;1.00;;;;;;5138399;28;20045;-68
2023/04/03 02:02:03;;;;;;;3.17;2.30;;;4.60;1.00;;;;;;5166756;28;20040;-70
2023/04/03 02:04:34;;;;;;;3.15;2.55;;;4.60;1.00;;;;;;5147363;28;20043;-70
2023/04/03 02:07:08;;;;;;;3.13;2.58;;;4.60;1.00;;;;;;5144173;28;20033;-68
2023/04/03 02:09:42;;;;;;;3.08;2.60;;;4.60;1.00;;;;;;5138439;28;20048;-68
2023/04/03 02:12:13;;;;;;;2.78;2.47;;;4.60;1.00;;;;;;5151938;28;20036;-67
2023/04/03 02:14:47;;;;;;;4.07;2.42;;;4.60;1.00;;;;;;5117859;28;20042;-68
2023/04/03 02:17:18;;;;;;;2.47;2.10;;;4.70;1.00;;;;;;5133936;28;20144;-69
2023/04/03 02:19:52;;;;;;;4.95;2.15;;;4.60;1.00;;;;;;5153325;28;20368;-67
2023/04/03 02:22:23;;;;;;;3.60;2.28;;;4.60;1.00;;;;;;5136647;28;20038;-67
2023/04/03 02:24:57;;;;;;;2.17;1.70;;;4.60;1.00;;;;;;5137941;28;20048;-70
2023/04/03 02:27:28;;;;;;;4.38;2.40;;;4.60;1.00;;;;;;5129068;28;20080;-68
2023/04/03 02:30:02;;;;;;;4.03;2.38;;;4.60;1.00;;;;;;5185430;28;20032;-68
2023/04/03 02:32:36;;;;;;;3.33;2.53;;;4.60;1.00;;;;;;5168180;28;20102;-68
2023/04/03 02:35:10;;;;;;;3.55;2.58;;;4.60;1.00;;;;;;5136851;28;20033;-69
2023/04/03 02:37:45;;;;;;;2.95;2.42;;;4.60;1.00;;;;;;5171232;28;20104;-71
2023/04/03 02:40:17;;;;;;;4.47;2.60;;;4.60;1.00;;;;;;5137031;28;20045;-72
2023/04/03 02:42:49;;;;;;;3.65;2.53;;;4.60;1.00;;;;;;5138987;28;20254;-70
2023/04/03 02:45:21;;;;;;;4.88;2.65;;;4.60;1.00;;;;;;5119637;28;20041;-68
2023/04/03 02:47:55;;;;;;;3.20;2.42;;;4.60;1.00;;;;;;5157448;28;20032;-72
2023/04/03 02:50:28;;;;;;;3.53;2.70;;;4.60;1.00;;;;;;5125410;28;20037;-66
2023/04/03 02:53:20;;;;;;;2.83;2.20;;;4.50;1.00;;;;;;5147730;28;20037;-68
2023/04/03 02:55:51;;;;;;;3.60;2.90;;;4.60;1.00;;;;;;5147557;28;20041;-71
2023/04/03 02:58:25;;;;;;;3.75;2.83;;;4.60;1.00;;;;;;5161878;28;20074;-67
2023/04/03 03:00:58;;;;;;;3.65;2.72;;;4.60;1.00;;;;;;5146677;28;20068;-69
2023/04/03 03:03:32;;;;;;;2.83;2.57;;;4.60;1.00;;;;;;5179396;28;20038;-70
2023/04/03 03:06:08;;;;;;;3.97;2.78;;;4.60;1.00;;;;;;5130538;28;20044;-67
2023/04/03 03:08:40;;;;;;;4.15;2.58;;;4.60;1.00;;;;;;5138612;28;20030;-69
2023/04/03 03:11:14;;;;;;;3.38;2.38;;;4.60;1.00;;;;;;5146338;28;20437;-71
2023/04/03 03:13:48;;;;;;;3.20;2.28;;;4.60;1.00;;;;;;5121062;28;20473;-66
2023/04/03 03:16:22;;;;;;;4.25;2.97;;;4.60;1.00;;;;;;5135446;28;20456;-68
2023/04/03 03:18:54;;;;;;;4.75;2.35;;;4.60;1.00;;;;;;5157891;28;20093;-71
2023/04/03 03:21:25;;;;;;;4.47;2.90;;;4.60;1.00;;;;;;5192358;28;20039;-69
2023/04/03 03:23:59;;;;;;;2.47;2.28;;;4.60;1.00;;;;;;5148970;28;20044;-70
2023/04/03 03:26:33;;;;;;;2.30;2.10;;;4.60;1.00;;;;;;5142897;28;20490;-69
2023/04/03 03:29:04;;;;;;;3.28;2.80;;;4.50;1.00;;;;;;5156796;28;20030;-73
2023/04/03 03:31:35;;;;;;;4.75;2.70;;;4.50;1.00;;;;;;5136328;28;20034;-69
2023/04/03 03:34:06;;;;;;;4.20;2.35;;;4.50;1.00;;;;;;5169382;28;20032;-70
2023/04/03 03:36:41;;;;;;;4.35;2.78;;;4.60;1.00;;;;;;5152563;28;20390;-68
2023/04/03 03:39:12;;;;;;;3.45;2.28;;;4.60;1.00;;;;;;5153513;28;20038;-70
2023/04/03 03:41:43;;;;;;;3.05;2.67;;;4.60;1.00;;;;;;5153167;28;20041;-69
2023/04/03 03:44:14;;;;;;;7.30;2.97;;;4.50;1.00;;;;;;5169882;28;20476;-71
2023/04/03 03:46:49;;;;;;;3.55;2.85;;;4.50;1.00;;;;;;5151445;28;20508;-68
2023/04/03 03:49:26;;;;;;;5.18;2.97;;;4.50;1.00;;;;;;5136858;28;20052;-70
2023/04/03 03:51:57;;;;;;;3.72;3.13;;;4.60;1.00;;;;;;5142419;28;20036;-70
2023/04/03 03:54:29;;;;;;;5.80;2.70;;;4.60;1.00;;;;;;5181668;28;20107;-68
2023/04/03 03:57:03;;;;;;;4.38;2.90;;;4.50;1.00;;;;;;5162938;28;20050;-71
2023/04/03 03:59:35;;;;;;;4.85;3.28;;;4.50;1.00;;;;;;5168807;28;20110;-71
2023/04/03 04:02:06;;;;;;;2.47;2.28;;;4.50;1.00;;;;;;5148982;28;20040;-67
2023/04/03 04:04:39;;;;;;;3.90;2.50;;;4.50;1.00;;;;;;5141454;28;20058;-71
2023/04/03 04:07:11;;;;;;;4.57;2.97;;;4.50;1.00;;;;;;5136807;28;20048;-71
2023/04/03 04:09:42;;;;;;;4.30;2.85;;;4.50;1.00;;;;;;5132277;28;20279;-70
2023/04/03 04:12:14;;;;;;;3.45;2.50;;;4.50;1.00;;;;;;5132983;28;20025;-67
2023/04/03 04:14:48;;;;;;;3.88;2.55;;;4.50;1.00;;;;;;5132076;28;20046;-69
2023/04/03 04:17:19;;;;;;;;;;;4.50;1.00;;;;;;5165289;28;20058;-69
2023/04/03 04:19:56;;;;;;;4.03;2.58;;;4.50;1.00;;;;;;5170113;28;19921;-70
2023/04/03 04:22:28;;;;;;;3.40;2.75;;;4.50;1.00;;;;;;5133978;28;20030;-69
2023/04/03 04:25:06;;;;;;;3.95;2.63;;;4.50;1.00;;;;;;5134446;28;20049;-69
2023/04/03 04:27:39;;;;;;;4.70;2.80;;;4.50;1.00;;;;;;5153199;28;20034;-71
2023/04/03 04:30:16;;;;;;;2.85;2.50;;;4.50;1.00;;;;;;5135825;28;20037;-70
2023/04/03 04:32:49;;;;;;;3.35;2.42;;;4.50;1.00;;;;;;5158964;28;20038;-68
2023/04/03 04:35:20;;;;;;;3.30;3.00;;;4.50;1.00;;;;;;5125903;28;20034;-69
2023/04/03 04:37:54;;;;;;;4.15;2.97;;;4.40;1.00;;;;;;5163153;28;20046;-68
2023/04/03 04:40:28;;;;;;;2.90;2.50;;;4.40;1.00;;;;;;5146129;28;20587;-68
2023/04/03 04:43:02;;;;;;;3.15;2.47;;;4.40;1.00;;;;;;5158573;28;20459;-67
2023/04/03 04:45:40;;;;;;;3.33;2.63;;;4.40;1.00;;;;;;5160319;28;20022;-69
2023/04/03 04:48:12;;;;;;;5.70;2.70;;;4.40;1.00;;;;;;5178647;28;20040;-69
2023/04/03 04:50:43;;;;;;;4.18;2.30;;;4.40;1.00;;;;;;5178880;28;20047;-66
2023/04/03 04:53:17;;;;;;;5.10;2.47;;;4.40;1.00;;;;;;5192517;28;20556;-68
2023/04/03 04:55:52;;;;;;;3.60;2.80;;;4.40;1.00;;;;;;5156827;28;20034;-67
2023/04/03 04:58:30;;;;;;;3.72;2.35;;;4.40;1.00;;;;;;5129746;28;20040;-70
2023/04/03 05:01:10;;;;;;;3.15;2.10;;;4.40;1.00;;;;;;5156488;28;20532;-67
2023/04/03 05:03:44;;;;;;;5.75;2.40;;;4.40;1.00;;;;;;5160789;28;20047;-70
2023/04/03 05:06:17;;;;;;;4.20;3.08;;;4.40;1.00;;;;;;5152027;28;20038;-70
2023/04/03 05:08:53;;;;;;;3.75;2.63;;;4.40;1.00;;;;;;5168052;28;20380;-70
2023/04/03 05:11:27;;;;;;;4.28;2.85;;;4.40;1.00;;;;;;5160932;28;20029;-67
2023/04/03 05:14:02;;;;;;;2.75;2.20;;;4.40;1.00;;;;;;5163451;28;20025;-66
2023/04/03 05:16:38;;;;;;;3.30;2.95;;;4.40;1.00;;;;;;5139193;28;20046;-71
2023/04/03 05:19:19;;;;;;;2.95;2.42;;;4.30;1.00;;;;;;5172322;28;20034;-73
2023/04/03 05:21:54;;;;;;;7.13;2.38;;;4.30;1.00;;;;;;5165201;28;20055;-71
2023/04/03 05:24:28;;;;;;;3.45;2.30;;;4.30;1.00;;;;;;5193719;28;20035;-71
2023/04/03 05:27:02;;;;;;;3.03;2.47;;;4.30;1.00;;;;;;5149651;28;20049;-67
2023/04/03 05:29:36;;;;;;;2.50;2.30;;;4.30;1.00;;;;;;5161032;28;20025;-69
2023/04/03 05:32:15;;;;;;;2.80;2.47;;;4.20;1.00;;;;;;5154808;28;20041;-68
2023/04/03 05:34:46;;;;;;;3.17;2.00;;;4.20;1.00;;;;;;5156849;28;20022;-70
2023/04/03 05:37:19;;;;;;;2.60;2.20;;;4.20;1.00;;;;;;5156152;28;20038;-66
2023/04/03 05:39:55;;;;;;;5.13;2.33;;;4.20;1.00;;;;;;5155748;28;20030;-71
2023/04/03 05:42:26;;;;;;;3.05;2.28;;;4.30;1.00;;;;;;5156822;28;20026;-68
2023/04/03 05:44:57;;;;;;;2.33;1.80;;;4.30;1.00;;;;;;5173619;28;20048;-68
2023/04/03 05:47:31;;;;;;;3.67;2.72;;;4.30;1.00;;;;;;5135925;28;20316;-65
2023/04/03 05:50:05;;;;;;;2.30;2.10;;;4.30;1.00;;;;;;5139842;28;20038;-68
2023/04/03 05:52:45;;;;;;;3.08;2.10;;;4.30;1.00;;;;;;5155662;28;20038;-68
2023/04/03 05:55:16;;;;;;;2.70;1.77;;;4.30;1.00;;;;;;5156773;28;20049;-68
2023/04/03 05:57:47;;;;;;;3.33;2.05;;;4.30;1.00;;;;;;5147481;28;20510;-69
2023/04/03 06:00:22;;;;;;;3.92;2.13;;;4.30;1.00;;;;;;5148253;28;20037;-67
2023/04/03 06:02:53;;;;;;;4.20;2.17;;;4.40;1.00;;;;;;5142435;28;20041;-66
2023/04/03 06:05:24;;;;;;;5.75;2.50;;;4.40;1.00;;;;;;5164888;28;20046;-68
2023/04/03 06:07:56;;;;;;;2.83;2.28;;;4.40;1.00;;;;;;5153778;28;20038;-66
2023/04/03 06:10:28;;;;;;;2.97;2.03;;;4.40;1.00;;;;;;5148384;28;20030;-68
2023/04/03 06:12:59;;;;;;;3.33;2.08;;;4.40;1.00;;;;;;5145481;28;20051;-71
2023/04/03 06:15:33;;;;;;;3.13;2.10;;;4.40;1.00;;;;;;5165654;28;20033;-70
2023/04/03 06:18:04;;;;;;;2.38;2.13;;;4.40;1.00;;;;;;5151809;28;20057;-68
2023/04/03 06:20:36;;;;;;;6.65;2.35;;;4.40;1.00;;;;;;5173878;28;20341;-68
2023/04/03 06:23:07;;;;;;;2.70;1.67;;;4.30;1.00;;;;;;5175656;28;20034;-69
2023/04/03 06:25:41;;;;;;;3.08;2.05;;;4.40;1.00;;;;;;5172402;28;20024;-70
2023/04/03 06:28:13;;;;;;;2.72;2.28;;;4.30;1.00;;;;;;5169106;28;20030;-68
2023/04/03 06:30:46;;;;;;;3.40;1.83;;;4.40;1.00;;;;;;5170834;28;20037;-69
2023/04/03 06:33:17;;;;;;;3.42;2.33;;;4.40;1.00;;;;;;5152113;28;20042;-67
2023/04/03 06:35:49;;;;;;;3.25;2.38;;;4.50;1.00;;;;;;5161253;28;20041;-66
2023/04/03 06:38:20;;;;;;;3.05;1.98;;;4.40;1.00;;;;;;5136448;28;20045;-69
2023/04/03 06:40:52;;;;;;;3.85;2.30;;;4.30;1.00;;;;;;5155891;28;20040;-67
2023/04/03 06:43:24;;;;;;;2.78;1.85;;;4.40;1.00;;;;;;5147637;28;20042;-68
2023/04/03 06:45:55;;;;;;;2.83;2.22;;;4.40;1.00;;;;;;5168845;28;20174;-71
2023/04/03 06:48:29;;;;;;;4.65;2.28;;;4.40;1.00;;;;;;5172584;28;20300;-67
2023/04/03 06:51:00;;;;;;;4.15;2.55;;;4.40;1.00;;;;;;5138924;28;20502;-70
2023/04/03 06:53:32;;;;;;;3.70;2.20;;;4.40;1.00;;;;;;5173012;28;20033;-69
2023/04/03 06:56:06;;;;;;;4.22;2.13;;;4.50;99.90;;;;;;5156087;28;20041;-70
2023/04/03 06:58:43;;;;;;;3.22;2.38;;;4.50;99.90;;;;;;5165610;28;20045;-69
2023/04/03 07:01:17;;;;;;;4.57;2.70;;;4.40;99.90;;;;;;5163731;28;20048;-70
2023/04/03 07:03:51;;;;;;;2.85;2.10;;;4.50;99.90;;;;;;5184718;28;20033;-67
2023/04/03 07:06:26;;;;;;;4.10;2.63;;;4.50;99.90;;;;;;5131369;28;20049;-70
2023/04/03 07:08:58;;;;;;;3.17;2.20;;;4.40;99.90;;;;;;5120929;28;20268;-68
2023/04/03 07:11:31;;;;;;;3.90;2.40;;;4.50;99.90;;;;;;5137008;28;20041;-67
2023/04/03 07:14:03;;;;;;;5.18;3.05;;;4.60;99.90;;;;;;5152857;28;20033;-69
2023/04/03 07:16:35;;;;;;;3.78;2.10;;;4.60;99.90;;;;;;5168507;28;20042;-69
2023/04/03 07:19:08;;;;;;;2.53;2.22;;;4.70;99.90;;;;;;5177836;28;20034;-71
2023/04/03 07:21:41;;;;;;;2.97;2.20;;;4.70;99.90;;;;;;5157767;28;20244;-68
2023/04/03 07:24:15;;;;;;;3.35;2.25;;;4.70;99.90;;;;;;5139315;28;20044;-68
2023/04/03 07:26:52;;;;;;;3.60;2.20;;;4.60;99.90;;;;;;5172072;28;20038;-70
2023/04/03 07:29:26;;;;;;;2.38;1.98;;;4.60;99.90;;;;;;5133954;28;20044;-66
2023/04/03 07:31:58;;;;;;;2.67;1.88;;;4.70;99.90;;;;;;5132348;28;20034;-69
2023/04/03 07:34:30;;;;;;;3.42;2.20;;;4.80;99.90;;;;;;5136042;28;20030;-69
2023/04/03 07:37:04;;;;;;;4.80;2.28;;;4.70;99.90;;;;;;5172041;28;20383;-69
2023/04/03 07:39:36;;;;;;;3.10;2.08;;;4.80;99.90;;;;;;5160339;28;20042;-68
2023/04/03 07:42:07;;;;;;;3.28;2.10;;;4.70;99.90;;;;;;5138168;28;20030;-71
2023/04/03 07:44:38;;;;;;;4.10;2.33;;;5.00;99.90;;;;;;5170892;28;20489;-70
2023/04/03 07:47:10;;;;;;;3.80;2.47;;;5.10;99.90;;;;;;5134327;28;20068;-69
2023/04/03 07:49:41;;;;;;;2.60;2.28;;;5.40;99.90;;;;;;5154578;28;20026;-69
2023/04/03 07:52:15;;;;;;;4.50;2.38;;;5.50;1.00;;;;;;5136795;28;20041;-68
2023/04/03 07:54:46;;;;;;;4.60;2.13;;;5.30;1.00;;;;;;5168804;28;20034;-71
2023/04/03 07:57:18;;;;;;;2.70;2.15;;;5.20;1.00;;;;;;5152676;28;20029;-66
2023/04/03 07:59:53;;;;;;;3.47;2.40;;;5.30;1.00;;;;;;5134307;28;20026;-69
2023/04/03 08:02:24;;;;;;;3.33;2.35;;;5.60;1.00;;;;;;5157522;28;20507;-69
2023/04/03 08:05:01;;;;;;;2.55;2.00;;;5.60;1.00;;;;;;5147624;28;20052;-65
2023/04/03 08:07:32;;;;;;;3.25;2.33;;;5.50;1.00;;;;;;5149102;28;20452;-69
2023/04/03 08:10:07;;;;;;;4.00;2.33;;;5.30;1.00;;;;;;5170617;28;20045;-66
2023/04/03 08:12:38;;;;;;;3.08;2.25;;;5.40;1.00;;;;;;5153590;28;20424;-68
2023/04/03 08:15:10;;;;;;;2.22;2.00;;;5.60;1.00;;;;;;5152236;28;20238;-69
2023/04/03 08:17:41;;;;;;;4.72;2.83;;;5.80;1.00;;;;;;5180904;28;20029;-70
2023/04/03 08:20:17;;;;;;;4.03;2.08;;;6.10;1.00;;;;;;5156057;28;20021;-68
2023/04/03 08:22:51;;;;;;;3.75;2.03;;;5.90;1.00;;;;;;5173138;28;20033;-67
2023/04/03 08:25:22;;;;;;;3.30;1.90;;;5.80;1.00;;;;;;5139707;28;20084;-69
2023/04/03 08:27:56;;;;;;;2.35;2.15;;;5.70;1.00;;;;;;5158376;28;20030;-68
2023/04/03 08:30:27;;;;;;;2.30;2.05;;;5.80;1.00;;;;;;5187647;28;20030;-67
2023/04/03 08:33:01;;;;;;;2.90;2.10;;;5.90;1.00;;;;;;5175971;28;20036;-67
2023/04/03 08:35:41;;;;;;;4.10;2.35;;;6.20;1.00;;;;;;5141139;28;20372;-64
2023/04/03 08:38:14;;;;;;;3.20;2.05;;;6.10;1.00;;;;;;5156336;28;20094;-68
2023/04/03 08:40:46;;;;;;;4.40;2.10;;;6.40;99.90;;;;;;5145369;28;20339;-68
2023/04/03 08:43:51;;;;;;;2.38;1.80;;;6.40;1.00;;;;;;5174340;28;20037;-68
2023/04/03 08:46:28;;;;;;;4.15;2.08;;;6.70;1.00;;;;;;5137143;28;20059;-68
2023/04/03 08:48:59;;;;;;;3.13;1.92;;;6.80;1.00;;;;;;5144783;28;20072;-69
2023/04/03 08:51:34;;;;;;;2.75;1.77;;;6.80;1.00;;;;;;5144531;28;20211;-67
2023/04/03 08:54:15;;;;;;;1.75;1.50;;;6.60;1.00;;;;;;5163799;28;20034;-68
2023/04/03 08:56:46;;;;;;;2.15;1.55;;;6.90;1.00;;;;;;5169116;28;20043;-70
2023/04/03 08:59:24;;;;;;;3.67;2.00;;;7.30;14.30;;;;;;5155918;28;20306;-66
2023/04/03 09:01:58;;;;;;;3.88;1.75;;;7.30;1.00;;;;;;5165478;28;20034;-71
2023/04/03 09:04:32;;;;;;;2.08;1.67;;;7.10;47.70;;;;;;5164498;28;20492;-69
2023/04/03 09:07:18;;;;;;;2.38;1.90;;;6.70;26.10;;;;;;5144749;28;20025;-67
2023/04/03 09:09:50;;;;;;;2.22;1.60;;;7.10;11.30;;;;;;5173242;28;20038;-67
2023/04/03 09:12:36;;;;;;;3.45;1.67;;;7.20;1.00;;;;;;5137243;28;20026;-67
2023/04/03 09:15:20;;;;;;;2.60;1.90;;;7.20;1.00;;;;;;5151334;28;20026;-68
2023/04/03 09:17:58;;;;;;;;;;;7.20;1.00;;;;;;5137680;28;20060;-67
2023/04/03 09:21:02;;;;;;;2.70;2.10;;;7.50;1.00;;;;;;5138087;28;19908;-67
2023/04/03 09:23:54;;;;;;;2.58;1.58;;;7.00;1.00;;;;;;5139290;28;20567;-69
2023/04/03 09:26:30;;;;;;;2.05;1.40;;;6.80;1.00;;;;;;5137223;28;20304;-66
2023/04/03 09:29:06;;;;;;;2.42;1.80;;;6.30;1.00;;;;;;5137786;28;20034;-68
2023/04/03 09:31:43;;;;;;;3.88;2.20;;;6.50;1.00;;;;;;5162283;28;20033;-68
2023/04/03 09:34:30;;;;;;;2.45;1.80;;;6.60;1.00;;;;;;5136656;28;20211;-66
2023/04/03 09:37:06;;;;;;;2.17;1.80;;;6.40;1.00;;;;;;5138080;28;20032;-68
2023/04/03 09:39:56;;;;;;;2.47;2.28;;;6.60;1.00;;;;;;5171095;28;20034;-70
2023/04/03 09:42:29;;;;;;;4.95;2.35;;;6.40;8.90;;;;;;5166181;28;20033;-65
2023/04/03 09:45:04;;;;;;;3.17;2.00;;;6.00;1.00;;;;;;5155347;28;20056;-67
2023/04/03 09:47:37;;;;;;;2.78;1.67;;;6.00;1.00;;;;;;5154229;28;20046;-67
2023/04/03 09:50:17;;;;;;;2.20;1.73;;;5.80;1.00;;;;;;5168282;28;20032;-65
2023/04/03 09:52:54;;;;;;;1.65;1.55;;;5.70;25.50;;;;;;5137156;28;20030;-68
2023/04/03 09:55:28;;;;;;;3.85;1.50;;;5.70;22.30;;;;;;5172931;28;20222;-69
2023/04/03 09:58:07;;;;;;;1.80;1.67;;;5.60;3.00;;;;;;5138839;28;20180;-69
2023/04/03 10:00:40;;;;;;;2.95;1.60;;;5.80;12.60;;;;;;5147728;28;20034;-68
2023/04/03 10:03:30;;;;;;;2.28;1.90;;;6.20;26.90;;;;;;5137765;28;20196;-66
2023/04/03 10:06:03;;;;;;;2.65;1.55;;;6.30;25.30;;;;;;5163625;28;20285;-68
2023/04/03 10:08:35;;;;;;;3.45;1.63;;;6.20;1.00;;;;;;5172245;28;20325;-69
2023/04/03 10:11:09;;;;;;;2.35;1.45;;;6.30;32.70;;;;;;5138283;28;20033;-69
2023/04/03 10:14:00;;;;;;;;;;;6.80;28.60;;;;;;5141573;28;20219;-68
2023/04/03 10:16:53;;;;;;;1.52;1.38;;;6.70;36.50;;;;;;5163835;28;20437;-69
2023/04/03 10:19:57;;;;;;;1.90;1.52;;;6.30;35.90;;;;;;5167113;28;20692;-66
2023/04/03 10:22:59;;;;;;;1.67;1.50;;;6.70;45.90;;;;;;5173192;28;20358;-69
2023/04/03 10:25:39;;;;;;;2.15;1.65;;;6.70;1.00;;;;;;5154077;28;20064;-67
2023/04/03 10:28:13;;;;;;;2.03;1.73;;;6.50;1.00;;;;;;5138192;28;20029;-70
2023/04/03 10:31:26;;;;;;;1.75;1.45;;;6.20;1.00;;;;;;5149442;28;20042;-67
2023/04/03 10:34:16;;;;;;;2.72;1.70;;;6.20;1.00;;;;;;5093148;28;20072;-67
2023/04/03 10:37:10;;;;;;;1.73;1.48;;;6.90;1.00;;;;;;5104755;28;20019;-67
2023/04/03 10:39:54;;;;;;;3.78;1.80;;;6.90;1.00;;;;;;5111700;28;20235;-66
2023/04/03 10:42:41;;;;;;;2.50;1.80;;;6.60;1.00;;;;;;5092413;28;20022;-68
2023/04/03 10:45:24;;;;;;;3.60;2.35;;;6.80;1.00;;;;;;5088392;28;20076;-68
2023/04/03 10:48:11;;;;;;;3.50;2.47;;;7.70;1.00;;;;;;5107695;28;20303;-67
2023/04/03 10:50:51;;;;;;;1.80;1.70;;;7.50;1.00;;;;;;5106497;28;20042;-68
2023/04/03 10:53:44;;;;;;;5.43;2.42;;;6.70;1.00;;;;;;5125398;28;20033;-68
2023/04/03 10:56:38;;;;;;;2.53;2.10;;;6.60;1.00;;;;;;5126751;28;20457;-68
2023/04/03 10:59:40;;;;;;;3.28;2.30;;;6.80;1.00;;;;;;5109597;28;20051;-67
2023/04/03 11:02:26;;;;;;;3.15;2.00;;;7.30;1.00;;;;;;5122401;28;20606;-66
2023/04/03 11:05:23;;;;;;;3.38;2.30;;;8.10;1.00;;;;;;5120923;28;20042;-65
2023/04/03 11:08:02;;;;;;;2.40;2.20;;;8.20;1.00;;;;;;5115674;28;20452;-67
2023/04/03 11:10:47;;;;;;;2.13;1.55;;;7.50;1.00;;;;;;5109215;28;20037;-70
2023/04/03 11:13:24;;;;;;;;;;;8.40;1.00;;;;;;5169045;28;20017;-69
2023/04/03 11:16:02;;;;;;;3.63;1.67;;;8.80;1.00;;;;;;5164531;28;19916;-68
2023/04/03 11:18:59;;;;;;;2.08;1.67;;;9.60;1.00;;;;;;5149733;28;20037;-68
2023/04/03 11:22:02;;;;;;;2.55;1.70;;;9.70;1.00;;;;;;5134424;28;20042;-70
2023/04/03 11:24:38;;;;;;;2.67;1.95;;;10.20;62.30;;;;;;5133457;28;20052;-66
2023/04/03 11:27:22;;;;;;;2.35;1.73;;;10.80;53.70;;;;;;5149319;28;20056;-70
2023/04/03 11:29:56;;;;;;;2.72;1.90;;;9.70;64.70;;;;;;5162055;28;20534;-67
2023/04/03 11:33:01;;;;;;;2.92;1.90;;;9.70;44.50;;;;;;5164382;28;20036;-65
2023/04/03 11:35:34;;;;;;;3.90;2.10;;;10.00;58.10;;;;;;5133871;28;20034;-67
2023/04/03 11:38:06;;;;;;;2.08;1.83;;;9.80;45.10;;;;;;5166681;28;20052;-67
2023/04/03 11:40:43;;;;;;;2.25;2.05;;;9.40;59.70;;;;;;5149997;28;20038;-68
2023/04/03 11:43:31;;;;;;;3.75;1.80;;;10.50;74.00;;;;;;5150090;28;20448;-69
2023/04/03 11:46:12;;;;;;;2.53;1.52;;;10.30;75.00;;;;;;5166494;28;20034;-67
2023/04/03 11:48:46;;;;;;;3.92;1.58;;;9.90;72.60;;;;;;5167607;28;20037;-67
2023/04/03 11:51:20;;;;;;;;;;;9.30;96.10;;;;;;5172637;28;20021;-67
2023/04/03 11:53:54;;;;;;;1.73;1.55;;;9.60;90.60;;;;;;5154057;28;20419;-69
2023/04/03 11:56:27;;;;;;;3.33;1.70;;;8.60;99.90;;;;;;5136364;28;20109;-69
2023/04/03 11:59:05;;;;;;;2.95;1.98;;;9.70;1.00;;;;;;5152779;28;20346;-67
2023/04/03 12:01:46;;;;;;;2.05;1.48;;;10.70;99.90;;;;;;5170395;28;20026;-67
2023/04/03 12:04:20;;;;;;;5.95;1.73;;;10.40;1.00;;;;;;5143133;28;20033;-68
2023/04/03 12:07:18;;;;;;;;;;;9.60;1.00;;;;;;5186008;28;20036;-68
2023/04/03 12:09:49;;;;;;;1.60;1.50;;;9.80;1.00;;;;;;5149457;28;20457;-64
2023/04/03 12:12:40;;;;;;;2.25;1.42;;;10.00;99.90;;;;;;5155601;28;20042;-67
2023/04/03 12:15:43;;;;;;;2.47;1.60;;;7.60;99.90;;;;;;5170122;28;20044;-71
2023/04/03 12:18:46;;;;;;;1.70;1.50;;;6.80;1.00;;;;;;5172463;28;20026;-67
2023/04/03 12:21:48;;;;;;;2.58;1.70;;;7.20;99.90;;;;;;5172073;28;20033;-68
2023/04/03 12:24:32;;;;;;;3.90;1.75;;;7.40;99.90;;;;;;5132402;28;20042;-67
2023/04/03 12:27:25;;;;;;;2.97;1.98;;;6.90;1.00;;;;;;5149144;28;20033;-69
2023/04/03 12:30:21;;;;;;;3.35;1.80;;;6.40;99.90;;;;;;5165693;28;20037;-66
2023/04/03 12:33:18;;;;;;;3.83;1.77;;;5.80;99.90;;;;;;5162858;28;20033;-69
2023/04/03 12:36:05;;;;;;;2.85;1.85;;;5.90;99.90;;;;;;5156629;28;20037;-66
2023/04/03 12:38:42;;;;;;;3.40;2.17;;;5.90;99.90;;;;;;5167628;28;20606;-67
2023/04/03 12:41:40;;;;;;;3.22;1.65;;;5.80;99.90;;;;;;5135962;28;20065;-67
2023/04/03 12:44:26;;;;;;;4.93;1.73;;;6.10;99.90;;;;;;5151942;28;20486;-68
2023/04/03 12:47:00;;;;;;;2.13;1.77;;;6.00;1.00;;;;;;5169939;28;20034;-68
2023/04/03 12:49:37;;;;;;;1.92;1.65;;;6.00;99.90;;;;;;5138458;28;20033;-71
2023/04/03 12:52:44;;;;;;;2.88;2.08;;;6.30;99.90;;;;;;5170804;28;20040;-66
2023/04/03 12:55:20;;;;;;;2.25;1.83;;;5.60;99.90;;;;;;5117635;28;20029;-64
2023/04/03 12:57:52;;;;;;;4.07;1.92;;;5.60;27.90;;;;;;5173972;28;20034;-69
2023/04/03 13:00:35;;;;;;;4.68;2.20;;;5.70;99.90;;;;;;5169209;28;20145;-67
2023/04/03 13:03:19;;;;;;;3.25;1.98;;;5.40;99.90;;;;;;5154747;28;20045;-68
2023/04/03 13:05:50;;;;;;;7.68;2.05;;;5.30;99.90;;;;;;5129407;28;20357;-69
2023/04/03 13:08:24;;;;;;;1.88;1.60;;;5.50;99.90;;;;;;5136005;28;20491;-66
2023/04/03 13:11:12;;;;;;;3.70;2.15;;;5.70;99.90;;;;;;5135075;28;20030;-67
2023/04/03 13:14:19;;;;;;;2.15;1.67;;;5.80;1.00;;;;;;5117180;28;20030;-67
2023/04/03 13:17:06;;;;;;;4.43;2.20;;;6.30;1.00;;;;;;5039884;29;20035;-68
2023/04/03 13:19:39;;;;;;;2.20;1.70;;;6.70;99.90;;;;;;5054031;29;20031;-68
2023/04/03 13:22:38;;;;;;;1.90;1.70;;;6.40;1.00;;;;;;5067676;29;20636;-65
2023/04/03 13:25:20;;;;;;;2.83;1.80;;;6.20;1.00;;;;;;5036335;29;20024;-68
2023/04/03 13:27:55;;;;;;;2.55;1.50;;;6.10;99.90;;;;;;5052071;29;20039;-67
2023/04/03 13:30:32;;;;;;;4.43;1.70;;;6.30;99.90;;;;;;5061693;29;20040;-66
2023/04/03 13:33:18;;;;;;;2.30;1.58;;;6.80;99.90;;;;;;5049486;29;20633;-67
2023/04/03 13:36:04;;;;;;;1.90;1.77;;;7.80;99.90;;;;;;5067075;29;20031;-69
2023/04/03 13:38:37;;;;;;;2.65;1.92;;;6.90;1.00;;;;;;5068458;29;20063;-68
2023/04/03 13:41:42;;;;;;;2.05;1.85;;;6.40;1.00;;;;;;5050560;29;20043;-69
2023/04/03 13:44:22;;;;;;;2.38;1.70;;;6.10;99.90;;;;;;5050649;29;20178;-66
2023/04/03 13:47:16;;;;;;;2.00;1.80;;;6.20;1.00;;;;;;5049450;29;20911;-69
2023/04/03 13:50:12;;;;;;;2.83;1.48;;;6.60;1.00;;;;;;5066333;29;20051;-66
2023/04/03 13:52:45;;;;;;;2.78;2.00;;;6.10;1.00;;;;;;5081575;28;20026;-65
2023/04/03 13:55:26;;;;;;;4.35;2.78;;;7.80;99.90;;;;;;5147467;28;20137;-68
2023/04/03 13:58:01;;;;;;;1.95;1.77;;;9.00;1.00;;;;;;5133705;28;20037;-65